createdAt,value
2023-02-26T00:00:16.857Z,88.3
2023-02-26T00:01:17.390Z,88.3
2023-02-26T00:02:17.299Z,88.6
2023-02-26T00:03:16.908Z,88.4
2023-02-26T00:04:17.439Z,88.3
2023-02-26T00:05:17.267Z,88.3
2023-02-26T00:06:16.852Z,88.3
2023-02-26T00:07:17.377Z,88.4
2023-02-26T00:08:16.921Z,88.5
2023-02-26T00:09:17.490Z,88.6
2023-02-26T00:10:17.184Z,88.5
2023-02-26T00:11:16.730Z,88.8
2023-02-26T00:12:17.342Z,89.0
2023-02-26T00:13:17.205Z,89.0
2023-02-26T00:14:16.920Z,89.1
2023-02-26T00:15:17.424Z,89.2
2023-02-26T00:16:17.015Z,89.2
2023-02-26T00:17:16.771Z,89.3
2023-02-26T00:18:17.344Z,89.3
2023-02-26T00:19:16.828Z,89.4
2023-02-26T00:20:17.336Z,89.4
2023-02-26T00:21:16.832Z,89.4
2023-02-26T00:22:17.080Z,89.5
2023-02-26T00:23:16.593Z,89.4
2023-02-26T00:24:17.099Z,89.4
2023-02-26T00:25:16.588Z,89.6
2023-02-26T00:26:17.148Z,89.7
2023-02-26T00:27:16.692Z,89.7
2023-02-26T00:28:17.214Z,89.6
2023-02-26T00:29:16.759Z,89.5
2023-02-26T00:30:17.271Z,89.9
2023-02-26T00:31:16.973Z,90.0
2023-02-26T00:32:17.353Z,89.8
2023-02-26T00:33:16.863Z,89.6
2023-02-26T00:34:17.354Z,89.5
2023-02-26T00:35:16.897Z,89.6
2023-02-26T00:36:17.398Z,89.6
2023-02-26T00:37:16.917Z,89.5
2023-02-26T00:38:17.391Z,89.5
2023-02-26T00:39:16.892Z,89.5
2023-02-26T00:40:17.429Z,89.5
2023-02-26T00:41:16.967Z,89.6
2023-02-26T00:42:17.497Z,89.7
2023-02-26T00:43:16.991Z,89.5
2023-02-26T00:44:16.474Z,89.5
2023-02-26T00:45:17.016Z,89.6
2023-02-26T00:46:16.605Z,89.5
2023-02-26T00:47:17.102Z,89.4
2023-02-26T00:48:16.592Z,89.4
2023-02-26T00:49:17.104Z,89.5
2023-02-26T00:50:16.757Z,89.5
2023-02-26T00:51:17.249Z,89.5
2023-02-26T00:52:16.677Z,89.4
2023-02-26T00:53:17.178Z,89.2
2023-02-26T00:54:16.669Z,89.3
2023-02-26T00:55:17.205Z,89.4
2023-02-26T00:56:16.698Z,89.3
2023-02-26T00:57:17.195Z,89.2
2023-02-26T00:58:16.699Z,89.0
2023-02-26T00:59:17.195Z,88.9
2023-02-26T01:00:16.733Z,88.7
2023-02-26T01:01:17.345Z,88.6
2023-02-26T01:02:16.515Z,88.6
2023-02-26T01:03:17.022Z,88.5
2023-02-26T01:04:16.495Z,88.5
2023-02-26T01:05:17.053Z,88.5
2023-02-26T01:06:16.580Z,88.4
2023-02-26T01:07:17.074Z,88.2
2023-02-26T01:08:16.575Z,88.1
2023-02-26T01:09:17.058Z,88.0
2023-02-26T01:10:16.566Z,88.1
2023-02-26T01:11:17.138Z,88.1
2023-02-26T01:12:16.906Z,88.1
2023-02-26T01:13:17.398Z,87.9
2023-02-26T01:14:16.881Z,87.8
2023-02-26T01:15:17.378Z,87.8
2023-02-26T01:16:17.070Z,87.6
2023-02-26T01:17:16.578Z,87.6
2023-02-26T01:18:17.090Z,87.6
2023-02-26T01:19:16.597Z,87.3
2023-02-26T01:20:17.114Z,87.0
2023-02-26T01:21:16.620Z,87.1
2023-02-26T01:22:16.967Z,87.1
2023-02-26T01:23:16.514Z,87.5
2023-02-26T01:24:17.061Z,86.9
2023-02-26T01:25:16.562Z,87.0
2023-02-26T01:26:17.064Z,86.6
2023-02-26T01:27:16.597Z,86.7
2023-02-26T01:28:17.075Z,86.7
2023-02-26T01:29:16.589Z,86.9
2023-02-26T01:30:17.114Z,86.8
2023-02-26T01:31:16.828Z,86.7
2023-02-26T01:32:17.685Z,86.7
2023-02-26T01:33:16.589Z,86.7
2023-02-26T01:34:17.103Z,86.7
2023-02-26T01:35:16.583Z,86.8
2023-02-26T01:36:17.107Z,86.7
2023-02-26T01:37:16.585Z,86.8
2023-02-26T01:38:17.074Z,86.8
2023-02-26T01:39:16.579Z,86.8
2023-02-26T01:40:17.092Z,86.7
2023-02-26T01:41:16.589Z,86.5
2023-02-26T01:42:16.934Z,86.6
2023-02-26T01:43:17.411Z,86.6
2023-02-26T01:44:16.955Z,86.7
2023-02-26T01:45:17.458Z,86.6
2023-02-26T01:46:17.042Z,86.5
2023-02-26T01:47:16.564Z,86.2
2023-02-26T01:48:17.076Z,86.1
2023-02-26T01:49:16.601Z,86.1
2023-02-26T01:50:17.117Z,86.2
2023-02-26T01:51:16.662Z,86.1
2023-02-26T01:52:17.126Z,86.1
2023-02-26T01:53:16.630Z,86.1
2023-02-26T01:54:17.186Z,86.1
2023-02-26T01:55:16.695Z,86.1
2023-02-26T01:56:17.218Z,86.1
2023-02-26T01:57:16.822Z,86.2
2023-02-26T01:58:17.397Z,86.3
2023-02-26T01:59:16.907Z,86.3
2023-02-26T02:00:17.430Z,86.3
2023-02-26T02:01:16.957Z,86.4
2023-02-26T02:02:16.799Z,86.4
2023-02-26T02:03:17.444Z,86.5
2023-02-26T02:04:17.028Z,86.4
2023-02-26T02:05:16.690Z,86.4
2023-02-26T02:06:17.199Z,86.4
2023-02-26T02:07:16.750Z,86.4
2023-02-26T02:08:17.306Z,86.3
2023-02-26T02:09:16.877Z,86.3
2023-02-26T02:10:17.351Z,86.3
2023-02-26T02:11:16.851Z,86.4
2023-02-26T02:12:16.587Z,86.5
2023-02-26T02:13:17.067Z,86.6
2023-02-26T02:14:16.590Z,86.7
2023-02-26T02:15:17.195Z,86.8
2023-02-26T02:16:16.795Z,86.8
2023-02-26T02:17:17.377Z,86.9
2023-02-26T02:18:16.888Z,86.7
2023-02-26T02:19:17.446Z,86.8
2023-02-26T02:20:17.030Z,86.8
2023-02-26T02:21:16.486Z,86.9
2023-02-26T02:22:17.099Z,87.0
2023-02-26T02:23:16.672Z,87.0
2023-02-26T02:24:16.444Z,87.1
2023-02-26T02:25:17.027Z,87.2
2023-02-26T02:26:16.726Z,87.3
2023-02-26T02:27:17.217Z,87.3
2023-02-26T02:28:16.743Z,87.2
2023-02-26T02:29:17.217Z,87.2
2023-02-26T02:30:16.744Z,87.3
2023-02-26T02:31:17.429Z,87.4
2023-02-26T02:32:17.685Z,87.4
2023-02-26T02:33:17.253Z,87.4
2023-02-26T02:34:16.750Z,87.4
2023-02-26T02:35:17.237Z,87.5
2023-02-26T02:36:16.714Z,87.5
2023-02-26T02:37:17.222Z,87.5
2023-02-26T02:38:16.726Z,87.6
2023-02-26T02:39:17.235Z,87.6
2023-02-26T02:40:16.728Z,87.7
2023-02-26T02:41:17.263Z,87.6
2023-02-26T02:42:17.150Z,87.6
2023-02-26T02:43:16.651Z,87.6
2023-02-26T02:44:17.151Z,87.6
2023-02-26T02:45:16.669Z,87.6
2023-02-26T02:46:17.563Z,87.7
2023-02-26T02:47:17.127Z,87.8
2023-02-26T02:48:16.620Z,87.7
2023-02-26T02:49:17.109Z,87.7
2023-02-26T02:50:16.613Z,87.8
2023-02-26T02:51:17.111Z,87.8
2023-02-26T02:52:17.377Z,87.8
2023-02-26T02:53:16.898Z,87.8
2023-02-26T02:54:17.378Z,87.8
2023-02-26T02:55:16.882Z,87.7
2023-02-26T02:56:17.410Z,87.7
2023-02-26T02:57:16.930Z,87.7
2023-02-26T02:58:17.464Z,87.8
2023-02-26T02:59:16.985Z,87.9
2023-02-26T03:00:16.500Z,88.0
2023-02-26T03:01:17.058Z,88.0
2023-02-26T03:02:16.764Z,88.0
2023-02-26T03:03:17.276Z,88.0
2023-02-26T03:04:16.757Z,88.0
2023-02-26T03:05:17.273Z,88.0
2023-02-26T03:06:16.759Z,88.1
2023-02-26T03:07:17.281Z,88.1
2023-02-26T03:08:16.778Z,88.2
2023-02-26T03:09:17.266Z,88.1
2023-02-26T03:10:16.778Z,88.1
2023-02-26T03:11:17.280Z,88.1
2023-02-26T03:12:17.027Z,88.0
2023-02-26T03:13:16.525Z,88.1
2023-02-26T03:14:17.034Z,88.1
2023-02-26T03:15:16.594Z,88.0
2023-02-26T03:16:17.160Z,88.0
2023-02-26T03:17:16.649Z,88.1
2023-02-26T03:18:17.141Z,88.2
2023-02-26T03:19:16.729Z,88.2
2023-02-26T03:20:17.223Z,88.1
2023-02-26T03:21:16.706Z,88.1
2023-02-26T03:22:16.491Z,88.1
2023-02-26T03:23:17.040Z,88.2
2023-02-26T03:24:16.539Z,88.3
2023-02-26T03:25:17.030Z,88.2
2023-02-26T03:26:16.551Z,88.2
2023-02-26T03:27:17.027Z,88.2
2023-02-26T03:28:16.547Z,88.2
2023-02-26T03:29:17.059Z,88.2
2023-02-26T03:30:16.555Z,88.2
2023-02-26T03:31:17.257Z,88.4
2023-02-26T03:32:17.684Z,88.4
2023-02-26T03:33:17.217Z,88.3
2023-02-26T03:34:16.717Z,88.3
2023-02-26T03:35:17.237Z,88.3
2023-02-26T03:36:16.739Z,88.3
2023-02-26T03:37:17.249Z,88.3
2023-02-26T03:38:16.737Z,88.3
2023-02-26T03:39:17.272Z,88.2
2023-02-26T03:40:16.791Z,88.2
2023-02-26T03:41:17.312Z,88.2
2023-02-26T03:42:17.092Z,88.1
2023-02-26T03:43:16.574Z,88.1
2023-02-26T03:44:17.071Z,88.1
2023-02-26T03:45:16.549Z,88.0
2023-02-26T03:46:17.129Z,88.1
2023-02-26T03:47:16.675Z,88.0
2023-02-26T03:48:17.188Z,88.1
2023-02-26T03:49:16.763Z,88.1
2023-02-26T03:50:17.344Z,88.0
2023-02-26T03:51:16.872Z,88.1
2023-02-26T03:52:16.572Z,88.2
2023-02-26T03:53:17.102Z,88.2
2023-02-26T03:54:16.584Z,88.3
2023-02-26T03:55:17.082Z,88.3
2023-02-26T03:56:16.580Z,88.5
2023-02-26T03:57:17.104Z,88.3
2023-02-26T03:58:16.570Z,88.3
2023-02-26T03:59:17.073Z,88.3
2023-02-26T04:00:16.575Z,88.3
2023-02-26T04:01:17.086Z,88.3
2023-02-26T04:02:17.554Z,88.2
2023-02-26T04:03:17.069Z,88.2
2023-02-26T04:04:16.759Z,88.1
2023-02-26T04:05:17.293Z,88.2
2023-02-26T04:06:16.792Z,88.2
2023-02-26T04:07:17.297Z,88.1
2023-02-26T04:08:16.787Z,88.2
2023-02-26T04:09:17.290Z,88.1
2023-02-26T04:10:16.793Z,88.1
2023-02-26T04:11:17.302Z,88.1
2023-02-26T04:12:17.082Z,88.1
2023-02-26T04:13:16.572Z,88.1
2023-02-26T04:14:17.084Z,88.1
2023-02-26T04:15:16.608Z,88.1
2023-02-26T04:16:17.229Z,88.1
2023-02-26T04:17:18.883Z,88.0
2023-02-26T04:18:17.376Z,88.0
2023-02-26T04:19:16.876Z,87.9
2023-02-26T04:20:17.354Z,87.9
2023-02-26T04:21:16.839Z,87.8
2023-02-26T04:22:17.154Z,87.9
2023-02-26T04:23:16.670Z,87.9
2023-02-26T04:24:17.153Z,87.8
2023-02-26T04:25:16.723Z,87.8
2023-02-26T04:26:17.249Z,87.9
2023-02-26T04:27:16.730Z,87.7
2023-02-26T04:28:17.228Z,87.7
2023-02-26T04:29:16.757Z,87.7
2023-02-26T04:30:17.266Z,87.7
2023-02-26T04:31:16.978Z,87.7
2023-02-26T04:32:17.436Z,87.7
2023-02-26T04:33:16.949Z,87.6
2023-02-26T04:34:17.448Z,87.6
2023-02-26T04:35:16.977Z,87.6
2023-02-26T04:36:16.588Z,87.6
2023-02-26T04:37:17.104Z,87.5
2023-02-26T04:38:16.615Z,87.6
2023-02-26T04:39:17.124Z,87.6
2023-02-26T04:40:16.612Z,87.7
2023-02-26T04:41:17.107Z,87.6
2023-02-26T04:42:16.635Z,87.6
2023-02-26T04:43:17.102Z,87.8
2023-02-26T04:44:16.618Z,87.6
2023-02-26T04:45:17.113Z,87.5
2023-02-26T04:46:16.772Z,87.6
2023-02-26T04:47:17.293Z,87.7
2023-02-26T04:48:16.816Z,87.6
2023-02-26T04:49:17.288Z,87.8
2023-02-26T04:50:16.787Z,87.7
2023-02-26T04:51:17.281Z,87.6
2023-02-26T04:52:16.837Z,87.7
2023-02-26T04:53:17.318Z,87.5
2023-02-26T04:54:16.807Z,87.5
2023-02-26T04:55:17.300Z,87.4
2023-02-26T04:56:16.817Z,87.5
2023-02-26T04:57:17.353Z,87.4
2023-02-26T04:58:16.815Z,87.4
2023-02-26T04:59:17.317Z,87.4
2023-02-26T05:00:16.831Z,87.4
2023-02-26T05:01:17.453Z,87.4
2023-02-26T05:02:17.113Z,87.4
2023-02-26T05:03:16.626Z,87.4
2023-02-26T05:04:17.223Z,87.4
2023-02-26T05:05:16.827Z,87.4
2023-02-26T05:06:17.357Z,87.3
2023-02-26T05:07:16.869Z,87.0
2023-02-26T05:08:17.382Z,87.1
2023-02-26T05:09:16.891Z,87.2
2023-02-26T05:10:17.400Z,87.1
2023-02-26T05:11:16.925Z,87.2
2023-02-26T05:12:16.677Z,87.3
2023-02-26T05:13:17.159Z,87.3
2023-02-26T05:14:16.666Z,87.3
2023-02-26T05:15:17.176Z,87.3
2023-02-26T05:16:16.738Z,87.3
2023-02-26T05:17:17.311Z,87.3
2023-02-26T05:18:16.825Z,87.4
2023-02-26T05:19:17.334Z,87.3
2023-02-26T05:20:16.843Z,87.3
2023-02-26T05:21:17.336Z,87.1
2023-02-26T05:22:17.014Z,87.1
2023-02-26T05:23:16.531Z,87.2
2023-02-26T05:24:17.021Z,87.2
2023-02-26T05:25:16.521Z,87.1
2023-02-26T05:26:16.997Z,87.1
2023-02-26T05:27:16.488Z,86.9
2023-02-26T05:28:17.038Z,86.8
2023-02-26T05:29:16.576Z,86.8
2023-02-26T05:30:17.089Z,86.8
2023-02-26T05:31:16.719Z,86.9
2023-02-26T05:32:17.567Z,87.0
2023-02-26T05:33:17.148Z,87.1
2023-02-26T05:34:16.670Z,87.1
2023-02-26T05:35:17.197Z,87.0
2023-02-26T05:36:16.664Z,86.9
2023-02-26T05:37:17.178Z,87.0
2023-02-26T05:38:16.679Z,87.1
2023-02-26T05:39:17.173Z,87.0
2023-02-26T05:40:16.686Z,87.0
2023-02-26T05:41:17.192Z,86.8
2023-02-26T05:42:16.569Z,86.8
2023-02-26T05:43:17.088Z,86.9
2023-02-26T05:44:16.576Z,87.1
2023-02-26T05:45:17.073Z,86.7
2023-02-26T05:46:16.623Z,86.8
2023-02-26T05:47:17.199Z,86.9
2023-02-26T05:48:16.743Z,86.7
2023-02-26T05:49:17.274Z,86.8
2023-02-26T05:50:16.750Z,86.9
2023-02-26T05:51:17.278Z,87.0
2023-02-26T05:52:16.684Z,86.9
2023-02-26T05:53:17.174Z,86.7
2023-02-26T05:54:16.658Z,86.7
2023-02-26T05:55:17.131Z,86.8
2023-02-26T05:56:18.107Z,86.8
2023-02-26T05:57:16.626Z,86.8
2023-02-26T05:58:17.133Z,86.9
2023-02-26T05:59:16.649Z,86.9
2023-02-26T06:00:17.124Z,86.9
2023-02-26T06:01:16.646Z,86.8
2023-02-26T06:02:17.353Z,86.8
2023-02-26T06:03:16.970Z,86.8
2023-02-26T06:04:16.495Z,86.7
2023-02-26T06:05:17.012Z,86.8
2023-02-26T06:06:16.551Z,86.8
2023-02-26T06:07:17.041Z,86.8
2023-02-26T06:08:16.589Z,86.8
2023-02-26T06:09:17.093Z,86.9
2023-02-26T06:10:16.593Z,86.8
2023-02-26T06:11:17.130Z,86.9
2023-02-26T06:12:17.489Z,86.9
2023-02-26T06:13:16.965Z,87.0
2023-02-26T06:14:17.498Z,87.0
2023-02-26T06:15:17.009Z,86.8
2023-02-26T06:16:16.643Z,86.9
2023-02-26T06:17:17.152Z,87.1
2023-02-26T06:18:16.694Z,87.2
2023-02-26T06:19:17.178Z,87.1
2023-02-26T06:20:16.700Z,87.1
2023-02-26T06:21:17.194Z,87.2
2023-02-26T06:22:16.870Z,87.3
2023-02-26T06:23:17.378Z,87.3
2023-02-26T06:24:16.909Z,87.5
2023-02-26T06:25:17.428Z,87.6
2023-02-26T06:26:16.957Z,87.6
2023-02-26T06:27:17.486Z,87.8
2023-02-26T06:28:17.023Z,87.8
2023-02-26T06:29:16.543Z,87.8
2023-02-26T06:30:17.091Z,87.8
2023-02-26T06:31:16.675Z,88.0
2023-02-26T06:32:17.512Z,88.2
2023-02-26T06:33:17.056Z,88.3
2023-02-26T06:34:16.562Z,88.2
2023-02-26T06:35:17.042Z,88.2
2023-02-26T06:36:16.525Z,88.2
2023-02-26T06:37:17.022Z,88.1
2023-02-26T06:38:16.490Z,88.0
2023-02-26T06:39:16.999Z,88.0
2023-02-26T06:40:16.521Z,88.1
2023-02-26T06:41:17.018Z,87.9
2023-02-26T06:42:20.270Z,87.9
2023-02-26T06:43:16.838Z,87.9
2023-02-26T06:44:17.349Z,88.0
2023-02-26T06:45:16.844Z,87.9
2023-02-26T06:46:17.504Z,87.8
2023-02-26T06:47:17.030Z,87.8
2023-02-26T06:48:16.505Z,87.8
2023-02-26T06:49:16.998Z,87.9
2023-02-26T06:50:16.496Z,87.9
2023-02-26T06:51:16.987Z,87.9
2023-02-26T06:52:16.711Z,87.9
2023-02-26T06:53:17.204Z,87.7
2023-02-26T06:54:16.707Z,87.7
2023-02-26T06:55:17.264Z,87.5
2023-02-26T06:56:16.794Z,87.5
2023-02-26T06:57:17.273Z,87.5
2023-02-26T06:58:16.811Z,87.5
2023-02-26T06:59:17.487Z,87.5
2023-02-26T07:00:17.192Z,87.5
2023-02-26T07:01:16.752Z,87.6
2023-02-26T07:02:17.501Z,87.4
2023-02-26T07:03:17.051Z,87.3
2023-02-26T07:04:17.128Z,87.4
2023-02-26T07:05:17.328Z,87.3
2023-02-26T07:06:28.221Z,87.2
2023-02-26T07:07:16.805Z,87.1
2023-02-26T07:08:17.298Z,86.7
2023-02-26T07:09:16.839Z,86.6
2023-02-26T07:10:17.330Z,86.6
2023-02-26T07:11:16.822Z,86.5
2023-02-26T07:12:17.221Z,86.7
2023-02-26T07:13:16.729Z,86.9
2023-02-26T07:14:17.211Z,87.1
2023-02-26T07:15:16.733Z,87.3
2023-02-26T07:16:17.225Z,87.2
2023-02-26T07:17:16.748Z,87.2
2023-02-26T07:18:17.264Z,87.2
2023-02-26T07:19:16.769Z,87.1
2023-02-26T07:20:17.301Z,87.1
2023-02-26T07:21:16.803Z,87.3
2023-02-26T07:22:17.186Z,87.6
2023-02-26T07:23:16.769Z,87.1
2023-02-26T07:24:17.290Z,87.2
2023-02-26T07:25:16.797Z,87.2
2023-02-26T07:26:17.296Z,87.3
2023-02-26T07:27:16.787Z,87.3
2023-02-26T07:28:17.324Z,87.4
2023-02-26T07:29:16.796Z,87.4
2023-02-26T07:30:17.341Z,87.4
2023-02-26T07:31:17.108Z,87.6
2023-02-26T07:32:16.653Z,87.6
2023-02-26T07:33:17.185Z,87.5
2023-02-26T07:34:16.670Z,87.6
2023-02-26T07:35:17.176Z,87.6
2023-02-26T07:36:16.711Z,87.6
2023-02-26T07:37:17.197Z,87.7
2023-02-26T07:38:19.700Z,88.0
2023-02-26T07:39:17.303Z,87.8
2023-02-26T07:40:16.825Z,87.7
2023-02-26T07:41:17.316Z,87.6
2023-02-26T07:42:16.901Z,87.7
2023-02-26T07:43:17.392Z,87.7
2023-02-26T07:44:16.893Z,87.7
2023-02-26T07:45:17.378Z,87.8
2023-02-26T07:46:17.002Z,87.7
2023-02-26T07:47:16.519Z,87.7
2023-02-26T07:48:17.977Z,87.6
2023-02-26T07:49:16.457Z,87.5
2023-02-26T07:50:16.929Z,87.4
2023-02-26T07:51:17.439Z,87.4
2023-02-26T07:52:17.032Z,87.3
2023-02-26T07:53:16.521Z,87.2
2023-02-26T07:54:17.002Z,87.2
2023-02-26T07:55:16.500Z,86.9
2023-02-26T07:56:17.007Z,86.6
2023-02-26T07:57:16.523Z,86.3
2023-02-26T07:58:17.058Z,86.0
2023-02-26T07:59:16.558Z,86.0
2023-02-26T08:00:17.095Z,85.9
2023-02-26T08:01:16.688Z,85.8
2023-02-26T08:02:17.185Z,85.6
2023-02-26T08:03:16.692Z,85.5
2023-02-26T08:04:17.236Z,85.2
2023-02-26T08:05:16.785Z,85.1
2023-02-26T08:06:17.259Z,85.1
2023-02-26T08:07:16.767Z,85.3
2023-02-26T08:08:17.262Z,85.4
2023-02-26T08:09:16.766Z,85.4
2023-02-26T08:10:17.281Z,85.1
2023-02-26T08:11:16.846Z,85.4
2023-02-26T08:12:17.406Z,85.5
2023-02-26T08:13:16.929Z,84.6
2023-02-26T08:14:17.422Z,84.9
2023-02-26T08:15:16.911Z,85.1
2023-02-26T08:16:17.618Z,84.9
2023-02-26T08:17:17.221Z,84.9
2023-02-26T08:18:16.742Z,84.9
2023-02-26T08:19:17.238Z,84.2
2023-02-26T08:20:16.718Z,83.8
2023-02-26T08:21:17.216Z,83.9
2023-02-26T08:22:16.574Z,83.3
2023-02-26T08:23:17.051Z,83.7
2023-02-26T08:24:16.533Z,83.6
2023-02-26T08:25:17.062Z,83.4
2023-02-26T08:26:16.571Z,83.3
2023-02-26T08:27:17.060Z,83.3
2023-02-26T08:28:16.559Z,83.3
2023-02-26T08:29:17.056Z,82.9
2023-02-26T08:30:16.554Z,83.3
2023-02-26T08:31:17.195Z,82.4
2023-02-26T08:32:16.873Z,80.9
2023-02-26T08:33:17.381Z,80.0
2023-02-26T08:34:16.862Z,80.5
2023-02-26T08:35:17.396Z,80.4
2023-02-26T08:36:16.852Z,78.3
2023-02-26T08:37:17.375Z,78.2
2023-02-26T08:38:16.864Z,78.6
2023-02-26T08:39:17.376Z,79.1
2023-02-26T08:40:16.913Z,78.0
2023-02-26T08:41:17.413Z,78.7
2023-02-26T08:42:16.677Z,77.7
2023-02-26T08:43:17.180Z,78.1
2023-02-26T08:44:16.676Z,79.1
2023-02-26T08:45:17.205Z,79.1
2023-02-26T08:46:16.865Z,77.8
2023-02-26T08:47:29.143Z,76.9
2023-02-26T08:48:16.751Z,76.1
2023-02-26T08:49:17.259Z,75.0
2023-02-26T08:50:16.769Z,73.6
2023-02-26T08:51:17.297Z,73.8
2023-02-26T08:52:16.666Z,73.3
2023-02-26T08:53:17.153Z,72.9
2023-02-26T08:54:16.647Z,71.5
2023-02-26T08:55:17.170Z,71.8
2023-02-26T08:56:16.683Z,73.2
2023-02-26T08:57:17.183Z,74.2
2023-02-26T08:58:16.684Z,73.9
2023-02-26T08:59:17.178Z,74.1
2023-02-26T09:00:16.663Z,74.3
2023-02-26T09:01:17.138Z,74.9
2023-02-26T09:02:16.782Z,74.4
2023-02-26T09:03:17.414Z,75.4
2023-02-26T09:04:16.960Z,75.9
2023-02-26T09:05:17.453Z,76.1
2023-02-26T09:06:16.995Z,75.6
2023-02-26T09:07:16.501Z,74.6
2023-02-26T09:08:16.983Z,73.6
2023-02-26T09:09:16.487Z,73.7
2023-02-26T09:10:16.991Z,74.2
2023-02-26T09:11:16.494Z,73.6
2023-02-26T09:12:17.469Z,73.9
2023-02-26T09:13:16.981Z,74.5
2023-02-26T09:14:16.474Z,74.3
2023-02-26T09:15:16.967Z,74.2
2023-02-26T09:16:17.596Z,74.5
2023-02-26T09:17:17.119Z,74.9
2023-02-26T09:18:16.592Z,75.2
2023-02-26T09:19:17.101Z,75.4
2023-02-26T09:20:16.630Z,74.1
2023-02-26T09:21:17.137Z,73.7
2023-02-26T09:22:16.475Z,74.7
2023-02-26T09:23:16.980Z,74.2
2023-02-26T09:24:16.532Z,75.1
2023-02-26T09:25:17.068Z,75.5
2023-02-26T09:26:16.549Z,75.2
2023-02-26T09:27:17.060Z,75.7
2023-02-26T09:28:16.572Z,75.4
2023-02-26T09:29:17.053Z,75.0
2023-02-26T09:30:16.555Z,74.8
2023-02-26T09:31:17.242Z,75.0
2023-02-26T09:32:17.459Z,75.2
2023-02-26T09:33:17.056Z,75.0
2023-02-26T09:34:16.559Z,75.1
2023-02-26T09:35:17.068Z,74.9
2023-02-26T09:36:16.550Z,74.9
2023-02-26T09:37:17.061Z,75.1
2023-02-26T09:38:16.583Z,74.7
2023-02-26T09:39:17.087Z,74.7
2023-02-26T09:40:16.559Z,75.2
2023-02-26T09:41:17.064Z,75.4
2023-02-26T09:42:16.707Z,75.7
2023-02-26T09:43:17.183Z,75.6
2023-02-26T09:44:16.742Z,75.8
2023-02-26T09:45:17.240Z,76.0
2023-02-26T09:46:16.813Z,76.1
2023-02-26T09:47:17.358Z,76.1
2023-02-26T09:48:16.855Z,76.6
2023-02-26T09:49:17.343Z,76.2
2023-02-26T09:50:16.864Z,75.8
2023-02-26T09:51:17.367Z,75.6
2023-02-26T09:52:17.051Z,75.5
2023-02-26T09:53:16.533Z,75.5
2023-02-26T09:54:16.992Z,75.7
2023-02-26T09:55:16.481Z,76.0
2023-02-26T09:56:16.953Z,75.7
2023-02-26T09:57:17.479Z,75.8
2023-02-26T09:58:19.178Z,75.8
2023-02-26T09:59:16.657Z,75.8
2023-02-26T10:00:17.190Z,76.5
2023-02-26T10:01:16.672Z,76.2
2023-02-26T10:02:17.380Z,75.7
2023-02-26T10:03:16.859Z,76.5
2023-02-26T10:04:20.821Z,75.6
2023-02-26T10:05:17.468Z,76.0
2023-02-26T10:06:17.008Z,76.1
2023-02-26T10:07:16.524Z,75.3
2023-02-26T10:08:17.007Z,75.1
2023-02-26T10:09:16.486Z,74.3
2023-02-26T10:10:17.038Z,74.9
2023-02-26T10:11:16.519Z,73.9
2023-02-26T10:12:16.952Z,73.4
2023-02-26T10:13:17.432Z,73.5
2023-02-26T10:14:16.918Z,73.4
2023-02-26T10:15:17.438Z,73.5
2023-02-26T10:16:16.972Z,74.1
2023-02-26T10:17:16.487Z,73.5
2023-02-26T10:18:17.002Z,73.6
2023-02-26T10:19:16.541Z,72.9
2023-02-26T10:20:17.161Z,72.0
2023-02-26T10:21:16.709Z,72.5
2023-02-26T10:22:16.912Z,72.9
2023-02-26T10:23:17.401Z,73.1
2023-02-26T10:24:16.867Z,72.6
2023-02-26T10:25:17.379Z,72.7
2023-02-26T10:26:16.880Z,73.6
2023-02-26T10:27:17.375Z,73.5
2023-02-26T10:28:16.882Z,73.2
2023-02-26T10:29:17.419Z,73.1
2023-02-26T10:30:16.917Z,73.2
2023-02-26T10:31:17.416Z,72.8
2023-02-26T10:32:17.012Z,73.1
2023-02-26T10:33:16.553Z,73.5
2023-02-26T10:34:17.098Z,73.3
2023-02-26T10:35:16.627Z,73.6
2023-02-26T10:36:17.140Z,73.7
2023-02-26T10:37:16.652Z,73.8
2023-02-26T10:38:17.125Z,74.0
2023-02-26T10:39:16.633Z,74.0
2023-02-26T10:40:17.162Z,74.4
2023-02-26T10:41:16.699Z,74.8
2023-02-26T10:42:17.389Z,74.6
2023-02-26T10:43:16.899Z,74.3
2023-02-26T10:44:17.385Z,74.5
2023-02-26T10:45:16.895Z,74.6
2023-02-26T10:46:17.688Z,74.8
2023-02-26T10:47:17.278Z,73.8
2023-02-26T10:48:16.775Z,72.7
2023-02-26T10:49:17.269Z,73.1
2023-02-26T10:50:16.808Z,73.4
2023-02-26T10:51:17.284Z,72.8
2023-02-26T10:52:16.534Z,73.1
2023-02-26T10:53:17.001Z,73.1
2023-02-26T10:54:16.498Z,72.6
2023-02-26T10:55:16.995Z,72.9
2023-02-26T10:56:16.474Z,72.1
2023-02-26T10:57:16.976Z,72.4
2023-02-26T10:58:16.524Z,72.3
2023-02-26T10:59:17.099Z,72.2
2023-02-26T11:00:16.738Z,71.4
2023-02-26T11:01:17.386Z,71.6
2023-02-26T11:02:17.425Z,71.6
2023-02-26T11:03:16.934Z,71.2
2023-02-26T11:04:17.415Z,70.5
2023-02-26T11:05:16.933Z,69.6
2023-02-26T11:06:17.428Z,69.7
2023-02-26T11:07:16.920Z,70.1
2023-02-26T11:08:17.417Z,70.1
2023-02-26T11:09:16.936Z,69.6
2023-02-26T11:10:17.437Z,68.5
2023-02-26T11:11:16.927Z,68.6
2023-02-26T11:12:17.212Z,68.6
2023-02-26T11:13:16.724Z,68.9
2023-02-26T11:14:17.232Z,67.8
2023-02-26T11:15:16.747Z,68.3
2023-02-26T11:16:17.496Z,69.0
2023-02-26T11:17:17.061Z,68.7
2023-02-26T11:18:16.592Z,69.2
2023-02-26T11:19:17.137Z,69.4
2023-02-26T11:20:16.648Z,69.3
2023-02-26T11:21:17.140Z,69.5
2023-02-26T11:22:16.506Z,69.9
2023-02-26T11:23:16.975Z,69.5
2023-02-26T11:24:16.472Z,70.3
2023-02-26T11:25:16.992Z,70.1
2023-02-26T11:26:16.514Z,68.8
2023-02-26T11:27:17.028Z,68.0
2023-02-26T11:28:16.574Z,67.7
2023-02-26T11:29:17.097Z,66.8
2023-02-26T11:30:16.620Z,67.7
2023-02-26T11:31:17.245Z,67.5
2023-02-26T11:32:17.352Z,67.4
2023-02-26T11:33:16.948Z,68.2
2023-02-26T11:34:17.441Z,68.9
2023-02-26T11:35:16.941Z,68.1
2023-02-26T11:36:17.468Z,67.7
2023-02-26T11:37:16.955Z,67.4
2023-02-26T11:38:17.697Z,66.2
2023-02-26T11:39:17.270Z,66.5
2023-02-26T11:40:16.809Z,65.4
2023-02-26T11:41:17.328Z,64.6
2023-02-26T11:42:16.564Z,64.6
2023-02-26T11:43:17.069Z,66.2
2023-02-26T11:44:16.565Z,65.9
2023-02-26T11:45:17.094Z,65.5
2023-02-26T11:46:16.725Z,64.5
2023-02-26T11:47:17.256Z,65.7
2023-02-26T11:48:16.807Z,64.6
2023-02-26T11:49:17.312Z,64.4
2023-02-26T11:50:16.868Z,65.2
2023-02-26T11:51:17.357Z,64.5
2023-02-26T11:52:16.959Z,64.5
2023-02-26T11:53:17.569Z,64.2
2023-02-26T11:54:17.100Z,65.1
2023-02-26T11:55:16.607Z,65.0
2023-02-26T11:56:17.140Z,64.6
2023-02-26T11:57:16.665Z,64.8
2023-02-26T11:58:17.149Z,64.4
2023-02-26T11:59:16.750Z,64.4
2023-02-26T12:00:17.348Z,64.5
2023-02-26T12:01:16.848Z,65.7
2023-02-26T12:02:16.948Z,66.0
2023-02-26T12:03:17.478Z,65.2
2023-02-26T12:04:16.982Z,66.1
2023-02-26T12:05:16.523Z,66.2
2023-02-26T12:06:17.082Z,66.7
2023-02-26T12:07:16.584Z,66.4
2023-02-26T12:08:17.078Z,66.2
2023-02-26T12:09:16.565Z,66.8
2023-02-26T12:10:17.086Z,65.8
2023-02-26T12:11:16.600Z,66.0
2023-02-26T12:12:17.254Z,65.8
2023-02-26T12:13:16.724Z,65.9
2023-02-26T12:14:17.231Z,65.9
2023-02-26T12:15:16.743Z,65.8
2023-02-26T12:16:17.397Z,66.0
2023-02-26T12:17:16.901Z,66.2
2023-02-26T12:18:17.384Z,66.6
2023-02-26T12:19:16.865Z,66.5
2023-02-26T12:20:17.402Z,64.9
2023-02-26T12:21:16.908Z,65.1
2023-02-26T12:22:16.555Z,65.5
2023-02-26T12:23:17.063Z,65.6
2023-02-26T12:24:16.583Z,66.0
2023-02-26T12:25:17.069Z,65.8
2023-02-26T12:26:16.549Z,65.6
2023-02-26T12:27:17.045Z,64.4
2023-02-26T12:28:16.524Z,65.0
2023-02-26T12:29:16.994Z,64.9
2023-02-26T12:30:16.548Z,64.7
2023-02-26T12:31:17.263Z,64.2
2023-02-26T12:32:16.944Z,64.9
2023-02-26T12:33:16.489Z,65.2
2023-02-26T12:34:16.988Z,65.7
2023-02-26T12:35:16.505Z,65.8
2023-02-26T12:36:17.013Z,65.7
2023-02-26T12:37:16.533Z,66.3
2023-02-26T12:38:17.048Z,66.1
2023-02-26T12:39:16.557Z,66.1
2023-02-26T12:40:17.051Z,65.4
2023-02-26T12:41:16.531Z,64.0
2023-02-26T12:42:16.474Z,64.1
2023-02-26T12:43:16.980Z,64.9
2023-02-26T12:44:16.476Z,64.3
2023-02-26T12:45:17.025Z,65.0
2023-02-26T12:46:16.585Z,65.5
2023-02-26T12:47:17.074Z,65.3
2023-02-26T12:48:16.575Z,65.8
2023-02-26T12:49:17.077Z,65.8
2023-02-26T12:50:16.598Z,65.5
2023-02-26T12:51:17.088Z,64.9
2023-02-26T12:52:16.674Z,64.9
2023-02-26T12:53:17.156Z,65.8
2023-02-26T12:54:16.665Z,65.7
2023-02-26T12:55:17.158Z,65.1
2023-02-26T12:56:16.669Z,64.9
2023-02-26T12:57:17.145Z,64.6
2023-02-26T12:58:16.635Z,64.7
2023-02-26T12:59:17.152Z,64.7
2023-02-26T13:00:16.684Z,64.4
2023-02-26T13:01:17.193Z,64.2
2023-02-26T13:02:16.777Z,63.4
2023-02-26T13:03:17.337Z,63.4
2023-02-26T13:04:16.927Z,63.2
2023-02-26T13:05:17.454Z,63.6
2023-02-26T13:06:16.924Z,63.8
2023-02-26T13:07:17.465Z,63.7
2023-02-26T13:08:16.956Z,63.7
2023-02-26T13:09:17.430Z,63.4
2023-02-26T13:10:16.972Z,63.0
2023-02-26T13:11:16.471Z,63.7
2023-02-26T13:12:17.021Z,63.3
2023-02-26T13:13:16.510Z,63.3
2023-02-26T13:14:16.984Z,63.7
2023-02-26T13:15:16.492Z,63.4
2023-02-26T13:16:17.096Z,63.5
2023-02-26T13:17:16.630Z,62.6
2023-02-26T13:18:17.137Z,63.4